createdAt,value
2023-01-26T00:00:30.929Z,5.69
2023-01-26T00:01:30.919Z,5.27
2023-01-26T00:02:31.013Z,5.11
2023-01-26T00:03:32.747Z,5.11
2023-01-26T00:04:30.970Z,5.68
2023-01-26T00:05:30.950Z,5.59
2023-01-26T00:06:30.948Z,5.22
2023-01-26T00:07:30.993Z,5.66
2023-01-26T00:08:31.004Z,5.09
2023-01-26T00:09:30.996Z,5.14
2023-01-26T00:10:31.024Z,5.04
2023-01-26T00:11:31.037Z,5.26
2023-01-26T00:12:31.022Z,5.34
2023-01-26T00:13:31.057Z,5.07
2023-01-26T00:14:31.050Z,5.11
2023-01-26T00:15:31.068Z,4.70
2023-01-26T00:16:31.129Z,5.15
2023-01-26T00:17:31.113Z,5.03
2023-01-26T00:18:31.120Z,4.80
2023-01-26T00:19:31.124Z,5.17
2023-01-26T00:20:31.124Z,5.32
2023-01-26T00:21:31.232Z,4.81
2023-01-26T00:22:31.150Z,5.12
2023-01-26T00:23:31.198Z,4.83
2023-01-26T00:24:31.210Z,4.32
2023-01-26T00:25:31.218Z,4.59
2023-01-26T00:26:31.227Z,5.25
2023-01-26T00:27:31.241Z,4.83
2023-01-26T00:28:31.294Z,5.09
2023-01-26T00:29:31.272Z,4.78
2023-01-26T00:30:31.368Z,4.83
2023-01-26T00:31:31.370Z,4.37
2023-01-26T00:32:31.332Z,4.37
2023-01-26T00:33:31.403Z,4.52
2023-01-26T00:34:31.373Z,4.22
2023-01-26T00:35:31.392Z,4.84
2023-01-26T00:36:31.400Z,5.05
2023-01-26T00:37:31.450Z,4.23
2023-01-26T01:39:32.162Z,3.99
2023-01-26T01:40:32.143Z,4.51
2023-01-26T01:41:32.181Z,3.99
2023-01-26T01:42:32.189Z,3.49
2023-01-26T01:43:32.199Z,4.53
2023-01-26T01:44:32.211Z,3.81
2023-01-26T01:45:32.237Z,3.48
2023-01-26T01:46:32.301Z,3.48
2023-01-26T01:47:32.255Z,4.09
2023-01-26T01:48:32.264Z,4.15
2023-01-26T01:49:32.305Z,4.04
2023-01-26T01:50:32.289Z,4.18
2023-01-26T01:51:32.299Z,4.12
2023-01-26T01:52:32.320Z,4.01
2023-01-26T01:53:32.357Z,3.67
2023-01-26T01:54:32.364Z,3.31
2023-01-26T02:52:33.132Z,2.12
2023-01-26T02:53:33.149Z,2.08
2023-01-26T02:54:33.175Z,1.90
2023-01-26T02:55:33.197Z,1.83
2023-01-26T02:56:33.213Z,1.91
2023-01-26T02:57:33.226Z,2.45
2023-01-26T02:58:33.238Z,1.68
2023-01-26T02:59:33.251Z,1.94
2023-01-26T03:00:33.312Z,1.69
2023-01-26T03:01:33.293Z,2.07
2023-01-26T03:02:33.313Z,1.86
2023-01-26T03:03:33.309Z,1.85
2023-01-26T03:04:33.332Z,1.69
2023-01-26T03:05:33.325Z,2.04
2023-01-26T03:06:33.353Z,1.47
2023-01-26T03:07:33.366Z,1.80
2023-01-26T03:08:33.365Z,1.10
2023-01-26T03:09:33.394Z,1.66
2023-01-26T03:10:33.404Z,1.76
2023-01-26T03:11:33.422Z,1.76
2023-01-26T03:12:33.450Z,1.42
2023-01-26T03:13:33.480Z,1.22
2023-01-26T03:14:33.461Z,1.58
2023-01-26T03:15:33.494Z,1.22
2023-01-26T03:16:33.585Z,1.73
2023-01-26T03:17:33.523Z,1.48
2023-01-26T03:18:33.578Z,1.39
2023-01-26T03:19:33.598Z,1.49
2023-01-26T03:20:33.592Z,1.31
2023-01-26T03:21:33.624Z,1.64
2023-01-26T03:22:33.656Z,1.26
2023-01-26T03:23:33.639Z,1.67
2023-01-26T03:24:33.673Z,1.85
2023-01-26T03:25:33.694Z,1.41
2023-01-26T03:26:33.748Z,1.60
2023-01-26T03:27:33.740Z,1.23
2023-01-26T03:28:33.761Z,1.21
2023-01-26T03:29:33.781Z,1.07
2023-01-26T03:30:33.852Z,1.76
2023-01-26T03:31:33.880Z,1.20
2023-01-26T03:32:33.854Z,1.42
2023-01-26T03:33:33.876Z,1.29
2023-01-26T03:34:33.866Z,1.30
2023-01-26T03:35:33.876Z,1.31
2023-01-26T03:36:33.897Z,1.00
2023-01-26T03:37:33.912Z,1.19
2023-01-26T03:38:33.911Z,1.41
2023-01-26T03:39:33.955Z,0.93
2023-01-26T03:40:33.975Z,1.17
2023-01-26T03:41:34.002Z,1.14
2023-01-26T03:42:34.025Z,1.00
2023-01-26T03:43:34.024Z,1.35
2023-01-26T03:44:34.090Z,1.25
2023-01-26T03:45:34.073Z,1.34
2023-01-26T03:46:34.120Z,1.04
2023-01-26T03:47:34.104Z,1.05
2023-01-26T03:48:34.134Z,1.08
2023-01-26T03:49:34.176Z,1.31
2023-01-26T03:50:34.207Z,1.36
2023-01-26T03:51:34.239Z,1.42
2023-01-26T03:52:34.237Z,1.01
2023-01-26T03:53:34.253Z,1.34
2023-01-26T03:54:34.268Z,0.82
2023-01-26T03:55:34.273Z,1.24
2023-01-26T03:56:34.335Z,1.07
2023-01-26T06:55:38.491Z,5.32
2023-01-26T06:56:38.517Z,4.89
2023-01-26T06:57:38.552Z,3.62
2023-01-26T06:58:38.570Z,4.53
2023-01-26T06:59:38.592Z,4.11
2023-01-26T07:00:38.610Z,4.16
2023-01-26T07:01:38.746Z,3.83
2023-01-26T07:02:38.726Z,3.20
2023-01-26T07:03:38.693Z,3.38
2023-01-26T07:04:38.712Z,3.02
2023-01-26T07:05:38.733Z,4.34
2023-01-26T07:06:38.765Z,5.90
2023-01-26T07:07:38.817Z,6.04
2023-01-26T07:08:38.833Z,6.05
2023-01-26T07:09:38.839Z,4.76
2023-01-26T07:10:38.850Z,4.62
2023-01-26T07:11:38.952Z,4.58
2023-01-26T07:12:38.903Z,6.01
2023-01-26T07:13:38.918Z,6.49
2023-01-26T07:14:38.964Z,6.08
2023-01-26T07:15:38.986Z,6.60
2023-01-26T07:16:39.034Z,6.27
2023-01-26T07:17:39.054Z,5.82
2023-01-26T07:18:39.046Z,6.38
2023-01-26T07:19:39.256Z,3.78
2023-01-26T07:20:39.099Z,5.96
2023-01-26T07:21:39.116Z,6.47
2023-01-26T07:22:39.128Z,10.64
2023-01-26T07:23:39.143Z,27.14
2023-01-26T07:24:39.150Z,17.41
2023-01-26T07:25:39.229Z,5.70
2023-01-26T07:26:39.232Z,13.30
2023-01-26T07:27:39.211Z,7.37
2023-01-26T07:28:40.272Z,8.35
2023-01-26T07:29:39.270Z,7.97
2023-01-26T07:30:39.375Z,8.88
2023-01-26T07:31:39.398Z,7.00
2023-01-26T07:32:39.470Z,7.15
2023-01-26T07:33:39.516Z,8.98
2023-01-26T07:34:39.352Z,8.45
2023-01-26T07:35:40.317Z,5.55
2023-01-26T07:36:39.416Z,7.63
2023-01-26T07:37:39.437Z,5.63
2023-01-26T07:38:39.452Z,6.78
2023-01-26T07:39:39.436Z,7.93
2023-01-26T07:40:39.496Z,4.30
2023-01-26T07:41:39.517Z,7.93
2023-01-26T07:42:39.505Z,7.33
2023-01-26T07:43:39.662Z,5.82
2023-01-26T07:44:39.577Z,6.81
2023-01-26T07:45:39.580Z,5.23
2023-01-26T07:46:39.685Z,6.37
2023-01-26T07:47:39.615Z,5.85
2023-01-26T07:48:39.668Z,5.89
2023-01-26T07:49:39.656Z,6.53
2023-01-26T07:50:39.638Z,5.33
2023-01-26T07:51:39.694Z,5.08
2023-01-26T07:52:39.725Z,6.52
2023-01-26T07:53:39.732Z,6.40
2023-01-26T07:54:39.709Z,6.18
2023-01-26T07:55:39.720Z,5.48
2023-01-26T07:56:39.729Z,5.34
2023-01-26T07:57:39.749Z,4.29
2023-01-26T07:58:39.839Z,5.98
2023-01-26T07:59:39.987Z,5.54
2023-01-26T08:00:40.209Z,4.03
2023-01-26T08:01:40.102Z,4.51
2023-01-26T08:02:40.134Z,5.77
2023-01-26T08:03:40.177Z,5.27
2023-01-26T08:04:40.318Z,5.20
2023-01-26T08:05:40.292Z,4.49
2023-01-26T08:06:40.350Z,5.50
2023-01-26T08:07:40.430Z,5.10
2023-01-26T08:08:40.490Z,5.54
2023-01-26T08:09:40.548Z,5.61
2023-01-26T08:10:40.656Z,5.79
2023-01-26T08:11:40.729Z,5.86
2023-01-26T08:12:41.360Z,6.30
2023-01-26T08:13:40.783Z,6.30
2023-01-26T08:14:46.871Z,6.07
2023-01-26T08:16:40.821Z,5.46
2023-01-26T08:18:40.776Z,6.39
2023-01-26T08:19:40.854Z,6.29
2023-01-26T08:21:40.887Z,7.37
2023-01-26T08:22:40.896Z,7.13
2023-01-26T08:23:40.851Z,7.30
2023-01-26T08:24:40.861Z,5.10
2023-01-26T08:25:40.811Z,5.88
2023-01-26T08:26:40.767Z,7.84
2023-01-26T08:27:40.813Z,6.76
2023-01-26T09:54:43.225Z,5.87
2023-01-26T09:55:43.237Z,6.51
2023-01-26T09:56:43.262Z,7.40
2023-01-26T09:57:43.291Z,6.92
2023-01-26T09:58:43.263Z,7.82
2023-01-26T09:59:43.308Z,9.06
2023-01-26T10:00:43.332Z,8.76
2023-01-26T10:01:43.396Z,8.60
2023-01-26T10:02:43.391Z,8.59
2023-01-26T10:03:43.416Z,10.05
2023-01-26T10:04:43.400Z,9.92
2023-01-26T10:05:43.413Z,10.06
2023-01-26T10:06:43.514Z,9.92
2023-01-26T10:07:43.523Z,10.96
2023-01-26T10:08:43.532Z,10.82
2023-01-26T10:09:45.910Z,12.12
2023-01-26T10:10:43.615Z,12.45
2023-01-26T10:11:43.652Z,12.24
2023-01-26T10:12:43.704Z,12.36
2023-01-26T10:13:43.718Z,11.63
2023-01-26T10:14:43.767Z,10.97
2023-01-26T10:15:43.781Z,10.04
2023-01-26T10:16:43.855Z,10.62
2023-01-26T10:17:43.937Z,10.28
2023-01-26T10:18:43.908Z,10.88
2023-01-26T10:19:43.941Z,10.94
2023-01-26T10:20:44.042Z,10.56
2023-01-26T10:21:44.054Z,10.89
2023-01-26T10:23:44.081Z,10.60
2023-01-26T10:24:44.151Z,12.02
2023-01-26T10:25:44.207Z,11.37
2023-01-26T10:26:44.210Z,11.15
2023-01-26T10:27:44.269Z,10.12
2023-01-26T10:33:44.605Z,8.61
2023-01-26T12:16:46.895Z,2.96
2023-01-26T12:17:46.764Z,3.64
2023-01-26T12:18:55.836Z,3.92
2023-01-26T12:19:47.844Z,4.63
2023-01-26T12:20:46.861Z,3.86
2023-01-26T12:21:46.932Z,4.03
2023-01-26T12:22:46.880Z,4.03
2023-01-26T12:23:46.936Z,4.55
2023-01-26T12:25:16.003Z,2.67
2023-01-26T12:25:47.938Z,3.17
2023-01-26T12:26:46.907Z,2.61
2023-01-26T12:27:46.959Z,3.10
2023-01-26T12:28:46.938Z,3.58
2023-01-26T12:29:46.958Z,3.42
2023-01-26T12:30:47.011Z,3.98
2023-01-26T12:31:46.930Z,4.20
2023-01-26T12:32:46.915Z,3.32
2023-01-26T12:33:46.913Z,3.48
2023-01-26T12:34:46.921Z,3.08
2023-01-26T12:35:46.886Z,3.88
2023-01-26T12:36:46.871Z,4.00
2023-01-26T12:37:46.855Z,3.29
2023-01-26T12:38:46.850Z,4.00
2023-01-26T12:39:46.857Z,3.34
2023-01-26T12:40:46.860Z,3.33
2023-01-26T12:41:46.861Z,3.36
2023-01-26T12:42:46.824Z,3.19
2023-01-26T12:43:46.847Z,3.36
2023-01-26T12:44:46.828Z,3.62
2023-01-26T12:45:46.800Z,2.86
2023-01-26T12:46:46.833Z,3.38
2023-01-26T12:47:46.801Z,3.52
2023-01-26T12:48:46.809Z,2.73
2023-01-26T12:49:46.884Z,3.88
2023-01-26T12:50:46.822Z,2.97
2023-01-26T12:51:46.784Z,2.99
2023-01-26T12:52:46.807Z,2.48
2023-01-26T12:53:46.771Z,3.55
2023-01-26T12:54:46.752Z,2.65
2023-01-26T12:55:46.845Z,3.23
2023-01-26T12:56:46.734Z,3.09
2023-01-26T12:57:46.761Z,2.48
2023-01-26T12:58:46.709Z,2.74
2023-01-26T12:59:48.886Z,3.60
2023-01-26T13:00:46.758Z,3.21
2023-01-26T13:01:46.759Z,3.18
2023-01-26T13:02:46.799Z,3.22
2023-01-26T13:03:46.742Z,3.22
2023-01-26T13:04:49.091Z,3.79
2023-01-26T13:05:46.885Z,3.68
2023-01-26T13:06:46.873Z,3.38
2023-01-26T13:07:46.882Z,3.73
2023-01-26T13:08:46.870Z,3.62
2023-01-26T13:09:46.859Z,3.38
2023-01-26T13:10:46.808Z,3.11
2023-01-26T13:11:46.804Z,3.10
2023-01-26T13:12:46.817Z,3.70
2023-01-26T13:13:46.862Z,3.36
2023-01-26T13:14:46.976Z,3.38
2023-01-26T13:15:46.983Z,3.00
2023-01-26T13:16:46.983Z,2.95
2023-01-26T13:17:47.061Z,3.29
2023-01-26T13:18:47.163Z,3.13
2023-01-26T13:19:47.100Z,2.87
2023-01-26T13:20:47.194Z,3.44
2023-01-26T13:21:47.160Z,4.18
2023-01-26T13:22:47.235Z,3.54
2023-01-26T13:23:47.276Z,3.29
2023-01-26T13:24:47.297Z,3.14
2023-01-26T13:25:47.299Z,2.63
2023-01-26T13:26:47.341Z,3.24
2023-01-26T13:27:47.365Z,2.77
2023-01-26T13:28:47.391Z,3.19
2023-01-26T13:29:47.417Z,3.36
2023-01-26T13:30:47.504Z,3.23
2023-01-26T13:31:47.568Z,3.17
2023-01-26T13:32:47.452Z,2.37
2023-01-26T13:33:47.520Z,2.48
2023-01-26T13:34:47.506Z,2.94
2023-01-26T13:35:47.545Z,2.91
2023-01-26T13:36:47.594Z,2.82
2023-01-26T13:37:47.597Z,2.93
2023-01-26T13:38:47.726Z,2.73
2023-01-26T13:39:47.670Z,2.78
2023-01-26T13:40:47.726Z,3.53
2023-01-26T13:41:47.772Z,2.48
2023-01-26T13:42:47.883Z,2.50
2023-01-26T13:43:47.850Z,2.85
2023-01-26T13:44:47.827Z,3.12
2023-01-26T13:45:47.925Z,2.84
2023-01-26T13:46:47.950Z,2.94
2023-01-26T13:47:47.920Z,3.18
2023-01-26T13:48:47.959Z,2.93
2023-01-26T13:49:47.957Z,2.79
2023-01-26T13:50:47.992Z,2.71
2023-01-26T13:51:48.017Z,3.05
2023-01-26T13:52:48.091Z,2.47
2023-01-26T13:53:48.109Z,2.80
2023-01-26T13:54:48.128Z,4.77
2023-01-26T13:55:48.152Z,2.87
2023-01-26T13:56:48.220Z,2.86
2023-01-26T13:57:48.241Z,2.71
2023-01-26T13:58:48.235Z,2.47
2023-01-26T13:59:48.257Z,2.95
2023-01-26T14:00:48.341Z,2.80
2023-01-26T14:01:48.517Z,2.43
2023-01-26T14:02:48.415Z,2.53
2023-01-26T14:03:48.366Z,3.08
2023-01-26T14:04:48.362Z,2.70
2023-01-26T14:05:48.391Z,3.08
2023-01-26T14:06:48.439Z,2.82
2023-01-26T14:07:48.384Z,2.69
2023-01-26T14:08:48.393Z,2.49
2023-01-26T14:09:48.386Z,3.25
2023-01-26T14:10:48.421Z,2.52
2023-01-26T14:11:48.478Z,2.13
2023-01-26T14:12:48.472Z,2.64
2023-01-26T14:13:48.481Z,3.05
2023-01-26T14:14:49.411Z,2.38
2023-01-26T14:15:48.425Z,2.41
2023-01-26T14:16:48.396Z,2.40
2023-01-26T14:17:48.349Z,2.43
2023-01-26T14:18:48.314Z,2.40
2023-01-26T14:19:48.265Z,2.23
2023-01-26T14:20:48.229Z,2.40
2023-01-26T14:21:48.216Z,2.71
2023-01-26T14:22:48.232Z,2.54
2023-01-26T14:23:48.309Z,2.56
2023-01-26T14:24:48.291Z,2.93
2023-01-26T14:25:48.364Z,2.88
2023-01-26T14:26:48.395Z,3.19
2023-01-26T14:27:48.403Z,2.75
2023-01-26T14:28:48.486Z,2.57
2023-01-26T14:29:48.495Z,2.93
2023-01-26T14:30:48.625Z,2.29
2023-01-26T14:31:48.635Z,2.59
2023-01-26T14:32:48.543Z,2.55
2023-01-26T14:33:48.545Z,2.40
2023-01-26T14:34:48.505Z,2.67
2023-01-26T14:35:48.522Z,2.62
2023-01-26T14:36:48.531Z,2.83
2023-01-26T14:37:48.498Z,2.39
2023-01-26T14:38:48.487Z,2.39
2023-01-26T14:39:48.496Z,2.68
2023-01-26T14:40:48.468Z,2.88
2023-01-26T14:41:48.442Z,2.67
2023-01-26T14:42:48.463Z,2.42
2023-01-26T14:43:48.405Z,3.05
2023-01-26T14:44:48.424Z,2.50
2023-01-26T14:45:48.380Z,3.04
2023-01-26T14:46:48.425Z,2.95
2023-01-26T14:47:48.399Z,2.56
2023-01-26T14:48:48.343Z,2.83
2023-01-26T14:49:48.319Z,2.48
2023-01-26T14:50:48.314Z,2.44
2023-01-26T14:51:48.322Z,2.78
2023-01-26T14:52:48.273Z,2.48
2023-01-26T14:53:48.321Z,2.68
2023-01-26T14:54:48.256Z,2.58
2023-01-26T14:55:48.239Z,2.43
2023-01-26T14:56:48.247Z,2.75
2023-01-26T14:57:48.252Z,2.71
2023-01-26T14:58:48.201Z,2.63
2023-01-26T14:59:48.206Z,2.83
2023-01-26T15:00:48.278Z,2.65
2023-01-26T15:01:48.250Z,2.46
2023-01-26T15:02:48.179Z,2.35
2023-01-26T15:03:48.200Z,2.47
2023-01-26T15:04:48.184Z,2.72
2023-01-26T15:05:48.191Z,2.30
2023-01-26T15:06:48.181Z,2.70
2023-01-26T15:07:48.157Z,2.77
2023-01-26T15:08:48.208Z,2.65
2023-01-26T15:09:48.130Z,2.32
2023-01-26T15:10:48.119Z,2.40
2023-01-26T15:11:48.118Z,2.60
2023-01-26T15:12:48.082Z,2.39
2023-01-26T15:13:48.065Z,2.36
2023-01-26T15:14:48.055Z,2.61
2023-01-26T15:15:48.092Z,2.77
2023-01-26T15:16:48.033Z,2.50
2023-01-26T15:17:48.033Z,3.16
2023-01-26T15:18:48.034Z,2.63
2023-01-26T15:19:48.003Z,2.51
2023-01-26T15:20:48.004Z,2.59
2023-01-26T15:21:48.006Z,2.63
2023-01-26T15:22:48.024Z,1.98
2023-01-26T15:23:48.136Z,3.14
2023-01-26T15:24:48.013Z,2.95
2023-01-26T15:25:48.013Z,2.47
2023-01-26T15:26:48.001Z,2.94
2023-01-26T15:27:48.022Z,2.61
2023-01-26T15:28:48.039Z,2.59
2023-01-26T15:29:48.004Z,2.68
2023-01-26T15:30:48.062Z,2.31
2023-01-26T15:31:48.017Z,2.89
2023-01-26T15:32:47.999Z,2.68
2023-01-26T15:33:48.067Z,1.75
2023-01-26T15:34:47.993Z,2.42
2023-01-26T15:35:48.000Z,3.30
2023-01-26T15:36:48.005Z,2.50
2023-01-26T15:37:47.956Z,2.85
2023-01-26T15:38:47.946Z,2.71
2023-01-26T15:39:47.942Z,2.69
2023-01-26T15:40:47.942Z,2.57
2023-01-26T15:41:47.930Z,2.41
2023-01-26T15:42:47.935Z,3.01
2023-01-26T15:43:47.921Z,2.47
2023-01-26T15:44:47.943Z,2.74
2023-01-26T15:45:47.944Z,2.77
2023-01-26T15:46:47.934Z,2.61
2023-01-26T15:47:47.928Z,2.33
2023-01-26T15:48:47.922Z,2.60
2023-01-26T15:49:47.903Z,2.64
2023-01-26T15:50:47.904Z,2.41
2023-01-26T15:51:47.908Z,2.80
2023-01-26T15:52:47.922Z,2.21
2023-01-26T15:56:16.075Z,0.63
2023-01-26T15:56:40.370Z,2.38
2023-01-26T15:57:40.387Z,3.06
2023-01-26T15:58:40.340Z,2.69
2023-01-26T15:59:40.317Z,2.82
2023-01-26T16:04:17.973Z,3.96
2023-01-26T16:28:16.510Z,2.99
2023-01-26T16:29:16.997Z,2.36
2023-01-26T16:30:18.503Z,2.98
2023-01-26T16:31:15.541Z,2.87
2023-01-26T16:33:16.986Z,2.84
2023-01-26T16:34:16.984Z,2.80
2023-01-26T16:36:16.220Z,3.04
2023-01-26T16:37:15.178Z,2.46
2023-01-26T16:39:15.140Z,2.36
2023-01-26T16:40:16.520Z,3.04
2023-01-26T16:48:16.491Z,2.61
2023-01-26T17:03:04.700Z,2.39
